sensor_id;sensor_type;location;lat;lon;timestamp;P1;durP1;ratioP1;P2;durP2;ratioP2
41253;SDS011;26987;59.928;30.306;2024-03-02T00:00:58;7.55;;;3.33;;
41253;SDS011;26987;59.928;30.306;2024-03-02T00:03:26;6.65;;;3.40;;
41253;SDS011;26987;59.928;30.306;2024-03-02T00:05:56;7.03;;;3.17;;
41253;SDS011;26987;59.928;30.306;2024-03-02T00:08:24;4.75;;;2.85;;
41253;SDS011;26987;59.928;30.306;2024-03-02T00:10:57;5.22;;;2.63;;
41253;SDS011;26987;59.928;30.306;2024-03-02T00:13:25;4.40;;;2.45;;
41253;SDS011;26987;59.928;30.306;2024-03-02T00:15:54;6.05;;;3.08;;
41253;SDS011;26987;59.928;30.306;2024-03-02T00:18:24;5.45;;;2.80;;
41253;SDS011;26987;59.928;30.306;2024-03-02T00:20:56;6.18;;;2.58;;
41253;SDS011;26987;59.928;30.306;2024-03-02T00:23:27;6.95;;;2.55;;
41253;SDS011;26987;59.928;30.306;2024-03-02T00:25:57;6.50;;;2.50;;
41253;SDS011;26987;59.928;30.306;2024-03-02T00:28:26;4.75;;;2.40;;
41253;SDS011;26987;59.928;30.306;2024-03-02T00:31:01;5.25;;;2.60;;
41253;SDS011;26987;59.928;30.306;2024-03-02T00:33:31;6.70;;;2.08;;
41253;SDS011;26987;59.928;30.306;2024-03-02T00:36:02;6.97;;;2.47;;
41253;SDS011;26987;59.928;30.306;2024-03-02T00:38:30;7.00;;;2.50;;
41253;SDS011;26987;59.928;30.306;2024-03-02T00:40:59;6.50;;;2.58;;
41253;SDS011;26987;59.928;30.306;2024-03-02T00:43:47;8.15;;;2.70;;
41253;SDS011;26987;59.928;30.306;2024-03-02T00:46:22;6.80;;;2.78;;
41253;SDS011;26987;59.928;30.306;2024-03-02T00:48:54;7.10;;;2.83;;
41253;SDS011;26987;59.928;30.306;2024-03-02T00:51:24;6.57;;;2.33;;
41253;SDS011;26987;59.928;30.306;2024-03-02T00:53:54;6.00;;;3.03;;
41253;SDS011;26987;59.928;30.306;2024-03-02T00:56:23;5.63;;;2.58;;
41253;SDS011;26987;59.928;30.306;2024-03-02T00:58:52;8.23;;;2.92;;
41253;SDS011;26987;59.928;30.306;2024-03-02T01:01:20;9.23;;;3.03;;
41253;SDS011;26987;59.928;30.306;2024-03-02T01:03:48;6.85;;;3.22;;
41253;SDS011;26987;59.928;30.306;2024-03-02T01:06:16;10.23;;;3.03;;
41253;SDS011;26987;59.928;30.306;2024-03-02T01:08:46;10.90;;;3.63;;
41253;SDS011;26987;59.928;30.306;2024-03-02T01:11:17;12.68;;;4.20;;
41253;SDS011;26987;59.928;30.306;2024-03-02T01:13:47;12.18;;;4.07;;
41253;SDS011;26987;59.928;30.306;2024-03-02T01:16:15;13.40;;;3.40;;
41253;SDS011;26987;59.928;30.306;2024-03-02T01:18:43;7.97;;;4.05;;
41253;SDS011;26987;59.928;30.306;2024-03-02T01:21:11;13.40;;;4.38;;
41253;SDS011;26987;59.928;30.306;2024-03-02T01:23:39;8.60;;;3.33;;
41253;SDS011;26987;59.928;30.306;2024-03-02T01:26:09;12.68;;;3.60;;
41253;SDS011;26987;59.928;30.306;2024-03-02T01:28:36;11.68;;;4.35;;
41253;SDS011;26987;59.928;30.306;2024-03-02T01:31:04;10.27;;;4.03;;
41253;SDS011;26987;59.928;30.306;2024-03-02T01:33:32;7.30;;;3.65;;
41253;SDS011;26987;59.928;30.306;2024-03-02T01:36:00;15.52;;;3.78;;
41253;SDS011;26987;59.928;30.306;2024-03-02T01:38:28;8.02;;;3.63;;
41253;SDS011;26987;59.928;30.306;2024-03-02T01:40:57;7.72;;;4.05;;
41253;SDS011;26987;59.928;30.306;2024-03-02T01:43:26;6.20;;;3.47;;
41253;SDS011;26987;59.928;30.306;2024-03-02T01:45:54;8.75;;;3.50;;
41253;SDS011;26987;59.928;30.306;2024-03-02T01:48:22;10.77;;;3.55;;
41253;SDS011;26987;59.928;30.306;2024-03-02T01:50:50;8.75;;;4.13;;
41253;SDS011;26987;59.928;30.306;2024-03-02T01:53:18;15.77;;;4.03;;
41253;SDS011;26987;59.928;30.306;2024-03-02T01:55:46;12.50;;;4.20;;
41253;SDS011;26987;59.928;30.306;2024-03-02T01:58:14;9.38;;;3.78;;
41253;SDS011;26987;59.928;30.306;2024-03-02T02:00:44;13.88;;;4.20;;
41253;SDS011;26987;59.928;30.306;2024-03-02T02:03:11;13.15;;;3.85;;
41253;SDS011;26987;59.928;30.306;2024-03-02T02:05:41;9.02;;;3.50;;
41253;SDS011;26987;59.928;30.306;2024-03-02T02:08:09;12.15;;;4.38;;
41253;SDS011;26987;59.928;30.306;2024-03-02T02:10:37;11.93;;;4.40;;
41253;SDS011;26987;59.928;30.306;2024-03-02T02:13:05;8.30;;;4.00;;
41253;SDS011;26987;59.928;30.306;2024-03-02T02:15:34;7.68;;;4.20;;
41253;SDS011;26987;59.928;30.306;2024-03-02T02:18:04;11.52;;;4.55;;
41253;SDS011;26987;59.928;30.306;2024-03-02T02:20:32;10.65;;;5.13;;
41253;SDS011;26987;59.928;30.306;2024-03-02T02:23:02;10.05;;;4.47;;
41253;SDS011;26987;59.928;30.306;2024-03-02T02:25:31;9.68;;;5.07;;
41253;SDS011;26987;59.928;30.306;2024-03-02T02:27:59;15.98;;;6.07;;
41253;SDS011;26987;59.928;30.306;2024-03-02T02:30:28;13.65;;;5.13;;
41253;SDS011;26987;59.928;30.306;2024-03-02T02:32:57;13.20;;;5.00;;
41253;SDS011;26987;59.928;30.306;2024-03-02T02:35:26;12.13;;;5.45;;
41253;SDS011;26987;59.928;30.306;2024-03-02T02:37:54;10.90;;;4.60;;
41253;SDS011;26987;59.928;30.306;2024-03-02T02:40:25;13.25;;;4.82;;
41253;SDS011;26987;59.928;30.306;2024-03-02T02:42:55;10.05;;;4.82;;
41253;SDS011;26987;59.928;30.306;2024-03-02T02:45:23;7.55;;;4.15;;
41253;SDS011;26987;59.928;30.306;2024-03-02T02:47:51;8.52;;;4.50;;
41253;SDS011;26987;59.928;30.306;2024-03-02T02:50:19;7.15;;;3.47;;
41253;SDS011;26987;59.928;30.306;2024-03-02T02:52:47;4.80;;;3.47;;
41253;SDS011;26987;59.928;30.306;2024-03-02T02:55:14;6.90;;;4.10;;
41253;SDS011;26987;59.928;30.306;2024-03-02T02:57:44;8.20;;;3.60;;
41253;SDS011;26987;59.928;30.306;2024-03-02T03:00:13;9.25;;;4.00;;
41253;SDS011;26987;59.928;30.306;2024-03-02T03:02:43;11.88;;;3.08;;
41253;SDS011;26987;59.928;30.306;2024-03-02T03:05:13;6.20;;;3.22;;
41253;SDS011;26987;59.928;30.306;2024-03-02T03:07:41;6.25;;;3.33;;
41253;SDS011;26987;59.928;30.306;2024-03-02T03:10:10;4.50;;;2.95;;
41253;SDS011;26987;59.928;30.306;2024-03-02T03:12:39;6.10;;;3.28;;
41253;SDS011;26987;59.928;30.306;2024-03-02T03:15:09;4.53;;;3.05;;
41253;SDS011;26987;59.928;30.306;2024-03-02T03:17:37;4.15;;;2.53;;
41253;SDS011;26987;59.928;30.306;2024-03-02T03:20:05;3.25;;;2.30;;
41253;SDS011;26987;59.928;30.306;2024-03-02T03:22:36;7.05;;;3.50;;
41253;SDS011;26987;59.928;30.306;2024-03-02T03:25:04;5.13;;;3.50;;
41253;SDS011;26987;59.928;30.306;2024-03-02T03:27:34;4.47;;;2.88;;
41253;SDS011;26987;59.928;30.306;2024-03-02T03:30:02;5.18;;;2.90;;
41253;SDS011;26987;59.928;30.306;2024-03-02T03:32:33;5.03;;;3.38;;
41253;SDS011;26987;59.928;30.306;2024-03-02T03:35:01;6.72;;;2.60;;
41253;SDS011;26987;59.928;30.306;2024-03-02T03:37:29;4.95;;;3.10;;
41253;SDS011;26987;59.928;30.306;2024-03-02T03:39:58;4.15;;;2.70;;
41253;SDS011;26987;59.928;30.306;2024-03-02T03:42:27;5.50;;;3.20;;
41253;SDS011;26987;59.928;30.306;2024-03-02T03:44:54;5.28;;;2.90;;
41253;SDS011;26987;59.928;30.306;2024-03-02T03:47:22;9.30;;;3.40;;
41253;SDS011;26987;59.928;30.306;2024-03-02T03:49:52;4.88;;;2.92;;
41253;SDS011;26987;59.928;30.306;2024-03-02T03:52:19;8.82;;;4.18;;
41253;SDS011;26987;59.928;30.306;2024-03-02T03:54:48;10.00;;;4.63;;
41253;SDS011;26987;59.928;30.306;2024-03-02T03:57:16;11.43;;;5.00;;
41253;SDS011;26987;59.928;30.306;2024-03-02T03:59:44;12.20;;;5.90;;
41253;SDS011;26987;59.928;30.306;2024-03-02T04:02:12;10.27;;;5.10;;
41253;SDS011;26987;59.928;30.306;2024-03-02T04:04:40;8.02;;;4.65;;
41253;SDS011;26987;59.928;30.306;2024-03-02T04:07:09;10.70;;;5.10;;
41253;SDS011;26987;59.928;30.306;2024-03-02T04:09:37;11.38;;;4.82;;
41253;SDS011;26987;59.928;30.306;2024-03-02T04:12:05;11.30;;;4.70;;
41253;SDS011;26987;59.928;30.306;2024-03-02T04:14:33;10.68;;;4.47;;
41253;SDS011;26987;59.928;30.306;2024-03-02T04:17:01;8.43;;;4.57;;
41253;SDS011;26987;59.928;30.306;2024-03-02T04:19:29;8.73;;;3.80;;
41253;SDS011;26987;59.928;30.306;2024-03-02T04:21:57;10.93;;;4.15;;
41253;SDS011;26987;59.928;30.306;2024-03-02T04:24:26;8.48;;;3.65;;
41253;SDS011;26987;59.928;30.306;2024-03-02T04:26:54;9.95;;;3.30;;
41253;SDS011;26987;59.928;30.306;2024-03-02T04:29:22;12.43;;;3.55;;
41253;SDS011;26987;59.928;30.306;2024-03-02T04:31:50;6.85;;;2.97;;
41253;SDS011;26987;59.928;30.306;2024-03-02T04:34:18;6.43;;;3.20;;
41253;SDS011;26987;59.928;30.306;2024-03-02T04:36:45;9.10;;;3.40;;
41253;SDS011;26987;59.928;30.306;2024-03-02T04:39:14;5.68;;;2.95;;
41253;SDS011;26987;59.928;30.306;2024-03-02T04:41:43;12.43;;;3.30;;
41253;SDS011;26987;59.928;30.306;2024-03-02T04:44:11;8.45;;;3.08;;
41253;SDS011;26987;59.928;30.306;2024-03-02T04:46:39;9.82;;;2.58;;
41253;SDS011;26987;59.928;30.306;2024-03-02T04:49:07;9.43;;;3.33;;
41253;SDS011;26987;59.928;30.306;2024-03-02T04:51:35;5.10;;;2.85;;
41253;SDS011;26987;59.928;30.306;2024-03-02T04:54:03;5.63;;;2.90;;
41253;SDS011;26987;59.928;30.306;2024-03-02T04:56:31;4.82;;;2.72;;
41253;SDS011;26987;59.928;30.306;2024-03-02T04:59:16;4.43;;;2.92;;
41253;SDS011;26987;59.928;30.306;2024-03-02T05:01:45;8.00;;;3.15;;
41253;SDS011;26987;59.928;30.306;2024-03-02T05:04:13;7.85;;;3.13;;
41253;SDS011;26987;59.928;30.306;2024-03-02T05:06:41;4.65;;;2.65;;
41253;SDS011;26987;59.928;30.306;2024-03-02T05:09:09;6.07;;;3.15;;
41253;SDS011;26987;59.928;30.306;2024-03-02T05:11:37;6.45;;;2.63;;
41253;SDS011;26987;59.928;30.306;2024-03-02T05:14:24;4.68;;;2.30;;
41253;SDS011;26987;59.928;30.306;2024-03-02T05:16:52;5.18;;;2.78;;
41253;SDS011;26987;59.928;30.306;2024-03-02T05:19:19;5.63;;;3.00;;
41253;SDS011;26987;59.928;30.306;2024-03-02T05:21:47;6.07;;;3.17;;
41253;SDS011;26987;59.928;30.306;2024-03-02T05:24:16;3.40;;;2.13;;
41253;SDS011;26987;59.928;30.306;2024-03-02T05:26:43;6.68;;;2.70;;
41253;SDS011;26987;59.928;30.306;2024-03-02T05:29:11;3.42;;;2.20;;
41253;SDS011;26987;59.928;30.306;2024-03-02T05:31:41;3.35;;;2.10;;
41253;SDS011;26987;59.928;30.306;2024-03-02T05:34:09;4.57;;;2.30;;
41253;SDS011;26987;59.928;30.306;2024-03-02T05:36:37;3.53;;;2.28;;
41253;SDS011;26987;59.928;30.306;2024-03-02T05:39:05;3.15;;;2.15;;
41253;SDS011;26987;59.928;30.306;2024-03-02T05:41:35;3.88;;;2.28;;
41253;SDS011;26987;59.928;30.306;2024-03-02T05:44:04;4.65;;;2.58;;
41253;SDS011;26987;59.928;30.306;2024-03-02T05:46:32;3.60;;;2.33;;
41253;SDS011;26987;59.928;30.306;2024-03-02T05:49:01;5.40;;;3.00;;
41253;SDS011;26987;59.928;30.306;2024-03-02T05:51:29;4.07;;;2.63;;
41253;SDS011;26987;59.928;30.306;2024-03-02T05:53:57;5.13;;;3.10;;
41253;SDS011;26987;59.928;30.306;2024-03-02T05:56:25;4.75;;;2.70;;
41253;SDS011;26987;59.928;30.306;2024-03-02T05:58:53;4.20;;;3.17;;
41253;SDS011;26987;59.928;30.306;2024-03-02T06:01:34;4.15;;;2.80;;
41253;SDS011;26987;59.928;30.306;2024-03-02T06:04:04;5.07;;;2.92;;
41253;SDS011;26987;59.928;30.306;2024-03-02T06:06:32;7.28;;;3.25;;
41253;SDS011;26987;59.928;30.306;2024-03-02T06:09:00;9.57;;;3.35;;
41253;SDS011;26987;59.928;30.306;2024-03-02T06:11:28;7.15;;;3.13;;
41253;SDS011;26987;59.928;30.306;2024-03-02T06:13:56;10.38;;;4.03;;
41253;SDS011;26987;59.928;30.306;2024-03-02T06:16:24;4.32;;;2.92;;
41253;SDS011;26987;59.928;30.306;2024-03-02T06:18:52;6.80;;;3.20;;
41253;SDS011;26987;59.928;30.306;2024-03-02T06:21:22;7.03;;;2.92;;
41253;SDS011;26987;59.928;30.306;2024-03-02T06:23:50;6.05;;;2.58;;
41253;SDS011;26987;59.928;30.306;2024-03-02T06:26:17;5.82;;;3.08;;
41253;SDS011;26987;59.928;30.306;2024-03-02T06:28:46;4.57;;;2.92;;
41253;SDS011;26987;59.928;30.306;2024-03-02T06:31:14;6.55;;;2.80;;
41253;SDS011;26987;59.928;30.306;2024-03-02T06:33:42;6.45;;;2.45;;
41253;SDS011;26987;59.928;30.306;2024-03-02T06:36:10;3.90;;;2.40;;
41253;SDS011;26987;59.928;30.306;2024-03-02T06:38:39;5.82;;;2.53;;
41253;SDS011;26987;59.928;30.306;2024-03-02T06:41:08;6.72;;;2.17;;
41253;SDS011;26987;59.928;30.306;2024-03-02T06:43:36;4.60;;;2.80;;
41253;SDS011;26987;59.928;30.306;2024-03-02T06:46:05;4.72;;;2.80;;
41253;SDS011;26987;59.928;30.306;2024-03-02T06:48:35;6.18;;;3.38;;
41253;SDS011;26987;59.928;30.306;2024-03-02T06:51:08;6.47;;;2.67;;
41253;SDS011;26987;59.928;30.306;2024-03-02T06:53:37;3.47;;;2.45;;
41253;SDS011;26987;59.928;30.306;2024-03-02T06:56:06;7.05;;;3.00;;
41253;SDS011;26987;59.928;30.306;2024-03-02T06:58:35;7.18;;;2.53;;
41253;SDS011;26987;59.928;30.306;2024-03-02T07:01:03;3.13;;;2.20;;
41253;SDS011;26987;59.928;30.306;2024-03-02T07:03:31;4.50;;;2.58;;
41253;SDS011;26987;59.928;30.306;2024-03-02T07:05:59;11.70;;;2.70;;
41253;SDS011;26987;59.928;30.306;2024-03-02T07:08:27;3.10;;;2.40;;
41253;SDS011;26987;59.928;30.306;2024-03-02T07:10:56;3.00;;;2.20;;
41253;SDS011;26987;59.928;30.306;2024-03-02T07:13:24;3.05;;;2.10;;
41253;SDS011;26987;59.928;30.306;2024-03-02T07:15:52;4.57;;;2.55;;
41253;SDS011;26987;59.928;30.306;2024-03-02T07:18:37;4.88;;;3.13;;
41253;SDS011;26987;59.928;30.306;2024-03-02T07:21:11;7.95;;;3.08;;
41253;SDS011;26987;59.928;30.306;2024-03-02T07:23:39;3.10;;;2.15;;
41253;SDS011;26987;59.928;30.306;2024-03-02T07:26:08;4.15;;;2.75;;
41253;SDS011;26987;59.928;30.306;2024-03-02T07:28:36;4.15;;;2.30;;
41253;SDS011;26987;59.928;30.306;2024-03-02T07:31:04;4.47;;;2.85;;
41253;SDS011;26987;59.928;30.306;2024-03-02T07:33:32;9.65;;;2.60;;
41253;SDS011;26987;59.928;30.306;2024-03-02T07:36:02;6.28;;;2.47;;
41253;SDS011;26987;59.928;30.306;2024-03-02T07:38:31;8.10;;;3.08;;
41253;SDS011;26987;59.928;30.306;2024-03-02T07:41:00;5.32;;;2.10;;
41253;SDS011;26987;59.928;30.306;2024-03-02T07:43:30;4.97;;;2.67;;
41253;SDS011;26987;59.928;30.306;2024-03-02T07:45:59;3.85;;;2.58;;
41253;SDS011;26987;59.928;30.306;2024-03-02T07:48:27;3.45;;;2.20;;
41253;SDS011;26987;59.928;30.306;2024-03-02T07:50:55;7.93;;;2.10;;
41253;SDS011;26987;59.928;30.306;2024-03-02T07:53:23;5.90;;;2.63;;
41253;SDS011;26987;59.928;30.306;2024-03-02T07:55:50;9.23;;;2.88;;
41253;SDS011;26987;59.928;30.306;2024-03-02T07:58:18;5.38;;;2.35;;
41253;SDS011;26987;59.928;30.306;2024-03-02T08:00:48;5.20;;;1.80;;
41253;SDS011;26987;59.928;30.306;2024-03-02T08:03:16;3.75;;;2.20;;
41253;SDS011;26987;59.928;30.306;2024-03-02T08:05:44;6.90;;;2.20;;
41253;SDS011;26987;59.928;30.306;2024-03-02T08:08:12;3.45;;;1.83;;
41253;SDS011;26987;59.928;30.306;2024-03-02T08:10:40;5.35;;;2.63;;
41253;SDS011;26987;59.928;30.306;2024-03-02T08:13:08;4.30;;;2.60;;
41253;SDS011;26987;59.928;30.306;2024-03-02T08:15:36;7.15;;;2.33;;
41253;SDS011;26987;59.928;30.306;2024-03-02T08:18:05;5.00;;;3.05;;
41253;SDS011;26987;59.928;30.306;2024-03-02T08:20:34;6.70;;;3.25;;
41253;SDS011;26987;59.928;30.306;2024-03-02T08:23:02;3.47;;;2.15;;
41253;SDS011;26987;59.928;30.306;2024-03-02T08:25:30;4.78;;;3.00;;
41253;SDS011;26987;59.928;30.306;2024-03-02T08:27:58;3.65;;;2.47;;
41253;SDS011;26987;59.928;30.306;2024-03-02T08:30:26;4.30;;;2.40;;
41253;SDS011;26987;59.928;30.306;2024-03-02T08:32:55;3.90;;;2.33;;
41253;SDS011;26987;59.928;30.306;2024-03-02T08:35:24;4.38;;;2.30;;
41253;SDS011;26987;59.928;30.306;2024-03-02T08:37:52;5.10;;;2.60;;
41253;SDS011;26987;59.928;30.306;2024-03-02T08:40:20;4.25;;;2.70;;
41253;SDS011;26987;59.928;30.306;2024-03-02T08:42:48;3.63;;;1.77;;
41253;SDS011;26987;59.928;30.306;2024-03-02T08:45:16;9.20;;;2.80;;
41253;SDS011;26987;59.928;30.306;2024-03-02T08:47:46;5.80;;;2.53;;
41253;SDS011;26987;59.928;30.306;2024-03-02T08:50:14;4.30;;;2.38;;
41253;SDS011;26987;59.928;30.306;2024-03-02T08:52:44;4.57;;;2.20;;
41253;SDS011;26987;59.928;30.306;2024-03-02T08:55:11;4.93;;;2.25;;
41253;SDS011;26987;59.928;30.306;2024-03-02T08:57:40;4.57;;;2.40;;
41253;SDS011;26987;59.928;30.306;2024-03-02T09:00:08;4.97;;;1.90;;
41253;SDS011;26987;59.928;30.306;2024-03-02T09:02:37;4.22;;;1.95;;
41253;SDS011;26987;59.928;30.306;2024-03-02T09:05:05;4.72;;;2.20;;
41253;SDS011;26987;59.928;30.306;2024-03-02T09:07:34;5.10;;;1.83;;
41253;SDS011;26987;59.928;30.306;2024-03-02T09:10:05;5.15;;;2.28;;
41253;SDS011;26987;59.928;30.306;2024-03-02T09:12:35;6.03;;;2.30;;
41253;SDS011;26987;59.928;30.306;2024-03-02T09:15:03;5.70;;;2.40;;
41253;SDS011;26987;59.928;30.306;2024-03-02T09:17:32;6.38;;;2.38;;
41253;SDS011;26987;59.928;30.306;2024-03-02T09:20:00;6.90;;;2.50;;
41253;SDS011;26987;59.928;30.306;2024-03-02T09:22:30;4.90;;;2.60;;
41253;SDS011;26987;59.928;30.306;2024-03-02T09:24:58;8.68;;;2.53;;
41253;SDS011;26987;59.928;30.306;2024-03-02T09:27:27;2.83;;;1.90;;
41253;SDS011;26987;59.928;30.306;2024-03-02T09:29:55;5.07;;;2.03;;
41253;SDS011;26987;59.928;30.306;2024-03-02T09:32:23;4.97;;;2.20;;
41253;SDS011;26987;59.928;30.306;2024-03-02T09:34:51;3.90;;;2.10;;
41253;SDS011;26987;59.928;30.306;2024-03-02T09:37:19;7.55;;;2.70;;
41253;SDS011;26987;59.928;30.306;2024-03-02T09:39:47;9.07;;;2.72;;
41253;SDS011;26987;59.928;30.306;2024-03-02T09:42:15;4.13;;;2.40;;
41253;SDS011;26987;59.928;30.306;2024-03-02T09:44:45;6.78;;;2.33;;
41253;SDS011;26987;59.928;30.306;2024-03-02T09:47:13;3.45;;;1.90;;
41253;SDS011;26987;59.928;30.306;2024-03-02T09:49:41;5.70;;;2.08;;
41253;SDS011;26987;59.928;30.306;2024-03-02T09:52:10;7.00;;;2.60;;
41253;SDS011;26987;59.928;30.306;2024-03-02T09:54:38;3.85;;;2.45;;
41253;SDS011;26987;59.928;30.306;2024-03-02T09:57:06;3.70;;;2.28;;
41253;SDS011;26987;59.928;30.306;2024-03-02T09:59:35;4.93;;;2.40;;
41253;SDS011;26987;59.928;30.306;2024-03-02T10:02:05;4.38;;;2.50;;
41253;SDS011;26987;59.928;30.306;2024-03-02T10:04:33;8.07;;;2.72;;
41253;SDS011;26987;59.928;30.306;2024-03-02T10:07:09;4.90;;;2.72;;
41253;SDS011;26987;59.928;30.306;2024-03-02T10:09:40;4.68;;;2.53;;
41253;SDS011;26987;59.928;30.306;2024-03-02T10:12:09;24.20;;;3.75;;
41253;SDS011;26987;59.928;30.306;2024-03-02T10:14:38;3.80;;;2.22;;
41253;SDS011;26987;59.928;30.306;2024-03-02T10:17:08;6.85;;;2.75;;
41253;SDS011;26987;59.928;30.306;2024-03-02T10:19:37;3.50;;;2.30;;
41253;SDS011;26987;59.928;30.306;2024-03-02T10:22:06;3.47;;;2.28;;
41253;SDS011;26987;59.928;30.306;2024-03-02T10:24:36;4.32;;;2.42;;
41253;SDS011;26987;59.928;30.306;2024-03-02T10:27:09;4.00;;;2.30;;
41253;SDS011;26987;59.928;30.306;2024-03-02T10:29:42;6.95;;;2.42;;
41253;SDS011;26987;59.928;30.306;2024-03-02T10:32:14;3.92;;;2.30;;
41253;SDS011;26987;59.928;30.306;2024-03-02T10:34:44;4.10;;;2.33;;
41253;SDS011;26987;59.928;30.306;2024-03-02T10:37:13;5.38;;;2.53;;
41253;SDS011;26987;59.928;30.306;2024-03-02T10:39:43;8.05;;;2.38;;
41253;SDS011;26987;59.928;30.306;2024-03-02T10:42:13;6.68;;;2.45;;
41253;SDS011;26987;59.928;30.306;2024-03-02T10:44:42;4.38;;;2.33;;
41253;SDS011;26987;59.928;30.306;2024-03-02T10:47:10;4.82;;;2.53;;
41253;SDS011;26987;59.928;30.306;2024-03-02T10:49:41;5.60;;;2.33;;
41253;SDS011;26987;59.928;30.306;2024-03-02T10:52:10;14.60;;;2.67;;
41253;SDS011;26987;59.928;30.306;2024-03-02T10:54:38;5.15;;;2.88;;
41253;SDS011;26987;59.928;30.306;2024-03-02T10:57:07;6.65;;;3.45;;
41253;SDS011;26987;59.928;30.306;2024-03-02T10:59:37;5.10;;;2.90;;
41253;SDS011;26987;59.928;30.306;2024-03-02T11:02:18;5.15;;;2.92;;
41253;SDS011;26987;59.928;30.306;2024-03-02T11:04:48;5.00;;;2.83;;
41253;SDS011;26987;59.928;30.306;2024-03-02T11:07:18;8.55;;;3.22;;
41253;SDS011;26987;59.928;30.306;2024-03-02T11:09:49;3.95;;;2.75;;
41253;SDS011;26987;59.928;30.306;2024-03-02T11:12:23;4.50;;;2.72;;
41253;SDS011;26987;59.928;30.306;2024-03-02T11:14:56;4.35;;;2.60;;
41253;SDS011;26987;59.928;30.306;2024-03-02T11:17:27;5.63;;;3.15;;
41253;SDS011;26987;59.928;30.306;2024-03-02T11:19:56;5.45;;;2.65;;
41253;SDS011;26987;59.928;30.306;2024-03-02T11:22:25;4.95;;;3.03;;
41253;SDS011;26987;59.928;30.306;2024-03-02T11:24:53;4.45;;;2.85;;
41253;SDS011;26987;59.928;30.306;2024-03-02T11:33:26;5.65;;;2.80;;
41253;SDS011;26987;59.928;30.306;2024-03-02T11:35:56;5.40;;;2.75;;
41253;SDS011;26987;59.928;30.306;2024-03-02T11:38:28;4.68;;;2.72;;
41253;SDS011;26987;59.928;30.306;2024-03-02T11:40:57;6.68;;;3.08;;
41253;SDS011;26987;59.928;30.306;2024-03-02T11:43:37;8.60;;;2.92;;
41253;SDS011;26987;59.928;30.306;2024-03-02T11:46:09;4.07;;;2.50;;
41253;SDS011;26987;59.928;30.306;2024-03-02T11:48:40;5.80;;;2.63;;
41253;SDS011;26987;59.928;30.306;2024-03-02T11:51:08;6.00;;;3.20;;
41253;SDS011;26987;59.928;30.306;2024-03-02T11:53:39;5.70;;;2.42;;
41253;SDS011;26987;59.928;30.306;2024-03-02T11:56:09;5.85;;;2.33;;
41253;SDS011;26987;59.928;30.306;2024-03-02T11:58:38;3.80;;;2.25;;
41253;SDS011;26987;59.928;30.306;2024-03-02T12:01:07;4.35;;;2.85;;
41253;SDS011;26987;59.928;30.306;2024-03-02T12:03:35;5.97;;;2.70;;
41253;SDS011;26987;59.928;30.306;2024-03-02T12:06:07;3.85;;;2.22;;
41253;SDS011;26987;59.928;30.306;2024-03-02T12:08:36;8.07;;;2.80;;
41253;SDS011;26987;59.928;30.306;2024-03-02T12:11:05;8.05;;;2.78;;
41253;SDS011;26987;59.928;30.306;2024-03-02T12:13:34;6.32;;;3.33;;
41253;SDS011;26987;59.928;30.306;2024-03-02T12:16:02;8.18;;;2.38;;
41253;SDS011;26987;59.928;30.306;2024-03-02T12:18:30;6.65;;;2.88;;
41253;SDS011;26987;59.928;30.306;2024-03-02T12:20:57;11.70;;;2.90;;
41253;SDS011;26987;59.928;30.306;2024-03-02T12:23:26;5.25;;;2.40;;
41253;SDS011;26987;59.928;30.306;2024-03-02T12:25:54;7.60;;;2.50;;
41253;SDS011;26987;59.928;30.306;2024-03-02T12:28:23;7.35;;;2.50;;
41253;SDS011;26987;59.928;30.306;2024-03-02T12:30:51;6.28;;;2.97;;
41253;SDS011;26987;59.928;30.306;2024-03-02T12:33:19;14.40;;;3.90;;
41253;SDS011;26987;59.928;30.306;2024-03-02T12:35:48;7.47;;;2.53;;
41253;SDS011;26987;59.928;30.306;2024-03-02T12:38:16;5.88;;;2.42;;
41253;SDS011;26987;59.928;30.306;2024-03-02T12:40:48;11.93;;;3.05;;
41253;SDS011;26987;59.928;30.306;2024-03-02T12:43:16;12.43;;;4.25;;
41253;SDS011;26987;59.928;30.306;2024-03-02T12:45:44;9.60;;;2.95;;
41253;SDS011;26987;59.928;30.306;2024-03-02T12:48:12;8.63;;;2.55;;
41253;SDS011;26987;59.928;30.306;2024-03-02T12:50:41;6.85;;;2.80;;
41253;SDS011;26987;59.928;30.306;2024-03-02T12:53:13;7.82;;;4.20;;
41253;SDS011;26987;59.928;30.306;2024-03-02T12:55:42;8.65;;;2.63;;
41253;SDS011;26987;59.928;30.306;2024-03-02T12:58:18;6.95;;;2.67;;
41253;SDS011;26987;59.928;30.306;2024-03-02T13:00:46;8.98;;;2.75;;
41253;SDS011;26987;59.928;30.306;2024-03-02T13:03:14;9.60;;;2.92;;
41253;SDS011;26987;59.928;30.306;2024-03-02T13:05:48;5.22;;;2.65;;
41253;SDS011;26987;59.928;30.306;2024-03-02T13:08:16;5.50;;;2.75;;
41253;SDS011;26987;59.928;30.306;2024-03-02T13:10:44;7.35;;;3.70;;
41253;SDS011;26987;59.928;30.306;2024-03-02T13:13:13;9.20;;;3.40;;
41253;SDS011;26987;59.928;30.306;2024-03-02T13:15:43;6.22;;;2.72;;
41253;SDS011;26987;59.928;30.306;2024-03-02T13:18:11;4.88;;;2.90;;
41253;SDS011;26987;59.928;30.306;2024-03-02T13:20:39;5.28;;;2.75;;
41253;SDS011;26987;59.928;30.306;2024-03-02T13:23:07;5.63;;;2.30;;
41253;SDS011;26987;59.928;30.306;2024-03-02T13:25:36;6.07;;;2.80;;
41253;SDS011;26987;59.928;30.306;2024-03-02T13:28:04;9.25;;;3.17;;
41253;SDS011;26987;59.928;30.306;2024-03-02T13:30:33;4.35;;;2.85;;
41253;SDS011;26987;59.928;30.306;2024-03-02T13:33:02;7.22;;;3.05;;
41253;SDS011;26987;59.928;30.306;2024-03-02T13:35:30;6.18;;;2.63;;
41253;SDS011;26987;59.928;30.306;2024-03-02T13:37:58;8.70;;;2.95;;
41253;SDS011;26987;59.928;30.306;2024-03-02T13:40:26;6.45;;;2.67;;
41253;SDS011;26987;59.928;30.306;2024-03-02T13:42:55;9.43;;;3.80;;
41253;SDS011;26987;59.928;30.306;2024-03-02T13:45:23;6.47;;;2.95;;
41253;SDS011;26987;59.928;30.306;2024-03-02T13:47:51;11.65;;;3.30;;
41253;SDS011;26987;59.928;30.306;2024-03-02T13:50:21;8.48;;;4.78;;
41253;SDS011;26987;59.928;30.306;2024-03-02T13:52:48;10.23;;;4.60;;
41253;SDS011;26987;59.928;30.306;2024-03-02T13:55:16;6.57;;;3.90;;
41253;SDS011;26987;59.928;30.306;2024-03-02T13:57:46;7.85;;;3.33;;
41253;SDS011;26987;59.928;30.306;2024-03-02T14:00:16;5.90;;;3.10;;
41253;SDS011;26987;59.928;30.306;2024-03-02T14:02:45;5.07;;;3.13;;
41253;SDS011;26987;59.928;30.306;2024-03-02T14:05:16;9.30;;;2.70;;
41253;SDS011;26987;59.928;30.306;2024-03-02T14:07:47;8.85;;;2.72;;
41253;SDS011;26987;59.928;30.306;2024-03-02T14:10:15;13.50;;;3.35;;
41253;SDS011;26987;59.928;30.306;2024-03-02T14:12:43;5.55;;;2.38;;
41253;SDS011;26987;59.928;30.306;2024-03-02T14:15:11;7.50;;;3.53;;
41253;SDS011;26987;59.928;30.306;2024-03-02T14:17:39;9.68;;;3.10;;
41253;SDS011;26987;59.928;30.306;2024-03-02T14:20:08;6.68;;;3.50;;
41253;SDS011;26987;59.928;30.306;2024-03-02T14:22:38;14.20;;;3.28;;
41253;SDS011;26987;59.928;30.306;2024-03-02T14:25:08;7.93;;;3.00;;
41253;SDS011;26987;59.928;30.306;2024-03-02T14:27:36;6.13;;;2.70;;
41253;SDS011;26987;59.928;30.306;2024-03-02T14:30:04;6.63;;;2.97;;
41253;SDS011;26987;59.928;30.306;2024-03-02T14:32:34;6.10;;;3.20;;
41253;SDS011;26987;59.928;30.306;2024-03-02T14:35:02;5.57;;;3.08;;
41253;SDS011;26987;59.928;30.306;2024-03-02T14:37:30;7.30;;;3.92;;
41253;SDS011;26987;59.928;30.306;2024-03-02T14:39:59;8.88;;;3.45;;
41253;SDS011;26987;59.928;30.306;2024-03-02T14:42:29;11.30;;;3.28;;
41253;SDS011;26987;59.928;30.306;2024-03-02T14:44:57;4.85;;;3.00;;
41253;SDS011;26987;59.928;30.306;2024-03-02T14:47:27;5.68;;;3.05;;
41253;SDS011;26987;59.928;30.306;2024-03-02T14:49:58;8.13;;;3.03;;